createdAt,value
2023-04-05T00:11:17.692Z,0.37
2023-04-05T00:26:21.578Z,-0.19
2023-04-05T00:41:24.189Z,2.61
2023-04-05T00:56:28.317Z,2.82
2023-04-05T01:11:33.572Z,0.44
2023-04-05T01:26:53.052Z,-0.91
2023-04-05T01:42:01.218Z,1.79
2023-04-05T01:57:05.130Z,3.38
2023-04-05T02:12:07.687Z,0.37
2023-04-05T02:27:10.790Z,-1.18
2023-04-05T02:42:13.594Z,2.06
2023-04-05T02:57:16.337Z,2.49
2023-04-05T03:12:19.254Z,-0.22
2023-04-05T03:27:21.934Z,1.95
2023-04-05T03:42:24.908Z,1.41
2023-04-05T03:57:29.117Z,-0.67
2023-04-05T04:12:31.790Z,1.71
2023-04-05T04:27:35.754Z,0.93
2023-04-05T04:42:38.860Z,-0.81
2023-04-05T04:57:42.919Z,2.51
2023-04-05T05:12:45.867Z,4.45
2023-04-05T05:27:51.028Z,3.15
2023-04-05T05:42:53.686Z,2.06
2023-04-05T05:57:56.447Z,1.78
2023-04-05T06:12:59.091Z,5.20
2023-04-05T06:28:03.433Z,7.35
2023-04-05T06:43:06.362Z,7.75
2023-04-05T06:58:09.059Z,7.24
2023-04-05T07:13:11.623Z,6.90
2023-04-05T07:28:14.247Z,6.37
2023-04-05T07:43:19.542Z,5.63
2023-04-05T07:58:22.699Z,5.33
2023-04-05T08:13:25.391Z,5.67
2023-04-05T08:28:27.977Z,6.62
2023-04-05T08:43:55.362Z,10.43
2023-04-05T08:59:07.230Z,15.66
2023-04-05T09:14:11.594Z,18.78
2023-04-05T09:29:30.162Z,17.60
2023-04-05T09:45:03.170Z,15.29
2023-04-05T10:00:16.766Z,13.15
2023-04-05T10:15:19.596Z,12.12
2023-04-05T10:30:24.392Z,11.43
2023-04-05T10:45:28.862Z,11.27
2023-04-05T11:00:33.147Z,13.25
2023-04-05T11:15:36.471Z,12.35
2023-04-05T11:30:54.134Z,10.69
2023-04-05T11:45:56.884Z,9.96
2023-04-05T12:01:01.067Z,9.90
2023-04-05T12:16:09.352Z,9.79
2023-04-05T12:31:12.116Z,10.30
2023-04-05T12:46:18.452Z,10.43
2023-04-05T13:01:21.074Z,9.71
2023-04-05T13:16:23.691Z,9.53
2023-04-05T13:31:27.165Z,9.00
2023-04-05T13:46:29.913Z,7.94
2023-04-05T14:01:34.128Z,6.99
2023-04-05T14:16:38.086Z,6.49
2023-04-05T14:31:40.847Z,6.55
2023-04-05T14:46:43.624Z,6.55
2023-04-05T15:01:47.385Z,6.44
2023-04-05T15:16:50.572Z,6.32
2023-04-05T15:31:53.561Z,6.18
2023-04-05T15:46:56.275Z,6.02
2023-04-05T16:01:58.942Z,5.86
2023-04-05T16:17:04.413Z,5.71
2023-04-05T16:32:08.483Z,5.58
2023-04-05T16:47:11.066Z,5.30
2023-04-05T17:02:13.689Z,5.00
2023-04-05T17:17:16.741Z,4.68
2023-04-05T17:32:19.326Z,7.56
2023-04-05T17:47:21.934Z,7.95
2023-04-05T18:02:24.714Z,5.50
2023-04-05T18:17:28.199Z,4.11
2023-04-05T18:32:31.357Z,6.34
2023-04-05T18:47:36.535Z,5.64
2023-04-05T19:02:39.358Z,3.61
2023-04-05T19:17:42.769Z,6.42
2023-04-05T19:32:45.735Z,6.54
2023-04-05T19:47:48.633Z,3.52
2023-04-05T20:02:51.942Z,5.81
2023-04-05T20:17:54.708Z,5.17
2023-04-05T20:32:57.733Z,2.39
2023-04-05T20:48:01.019Z,4.95
2023-04-05T21:03:04.014Z,5.80
2023-04-05T21:18:08.434Z,2.61
2023-04-05T21:33:12.205Z,5.26
2023-04-05T21:48:14.955Z,5.04
2023-04-05T22:03:17.579Z,2.08
2023-04-05T22:18:20.310Z,4.23
2023-04-05T22:33:22.973Z,4.74
2023-04-05T22:48:26.177Z,5.27
2023-04-05T23:03:28.760Z,3.49
2023-04-05T23:18:31.569Z,4.94
2023-04-05T23:33:34.460Z,3.54
2023-04-05T23:48:37.306Z,0.83
